sensor_id;sensor_type;location;lat;lon;timestamp;P1;durP1;ratioP1;P2;durP2;ratioP2
58302;SDS011;44109;52.398;7.024;2022-12-29T00:00:55;3.78;;;2.00;;
58302;SDS011;44109;52.398;7.024;2022-12-29T00:03:28;3.08;;;1.83;;
58302;SDS011;44109;52.398;7.024;2022-12-29T00:05:55;3.50;;;1.77;;
58302;SDS011;44109;52.398;7.024;2022-12-29T00:08:24;4.97;;;2.22;;
58302;SDS011;44109;52.398;7.024;2022-12-29T00:11:05;4.68;;;2.30;;
58302;SDS011;44109;52.398;7.024;2022-12-29T00:13:33;3.03;;;2.38;;
58302;SDS011;44109;52.398;7.024;2022-12-29T00:16:19;2.20;;;1.65;;
58302;SDS011;44109;52.398;7.024;2022-12-29T00:18:48;3.38;;;2.17;;
58302;SDS011;44109;52.398;7.024;2022-12-29T00:21:17;2.78;;;1.77;;
58302;SDS011;44109;52.398;7.024;2022-12-29T00:24:05;3.90;;;2.00;;
58302;SDS011;44109;52.398;7.024;2022-12-29T00:26:55;3.25;;;1.73;;
58302;SDS011;44109;52.398;7.024;2022-12-29T00:29:53;4.32;;;1.55;;
58302;SDS011;44109;52.398;7.024;2022-12-29T00:32:38;4.13;;;2.33;;
58302;SDS011;44109;52.398;7.024;2022-12-29T00:35:26;3.63;;;2.08;;
58302;SDS011;44109;52.398;7.024;2022-12-29T00:37:57;3.85;;;2.10;;
58302;SDS011;44109;52.398;7.024;2022-12-29T00:40:48;2.80;;;1.60;;
58302;SDS011;44109;52.398;7.024;2022-12-29T00:43:33;2.67;;;1.85;;
58302;SDS011;44109;52.398;7.024;2022-12-29T00:46:18;2.90;;;1.85;;
58302;SDS011;44109;52.398;7.024;2022-12-29T00:48:46;3.58;;;2.15;;
58302;SDS011;44109;52.398;7.024;2022-12-29T00:51:32;2.80;;;1.83;;
58302;SDS011;44109;52.398;7.024;2022-12-29T00:54:00;2.63;;;1.70;;
58302;SDS011;44109;52.398;7.024;2022-12-29T00:56:28;2.90;;;2.10;;
58302;SDS011;44109;52.398;7.024;2022-12-29T00:58:59;2.40;;;2.00;;
58302;SDS011;44109;52.398;7.024;2022-12-29T01:01:27;4.68;;;2.17;;
58302;SDS011;44109;52.398;7.024;2022-12-29T01:03:56;3.28;;;2.65;;
58302;SDS011;44109;52.398;7.024;2022-12-29T01:06:23;3.38;;;2.05;;
58302;SDS011;44109;52.398;7.024;2022-12-29T01:08:52;3.30;;;2.22;;
58302;SDS011;44109;52.398;7.024;2022-12-29T01:11:34;2.17;;;1.50;;
58302;SDS011;44109;52.398;7.024;2022-12-29T01:14:01;4.50;;;1.92;;
58302;SDS011;44109;52.398;7.024;2022-12-29T01:16:29;6.55;;;2.13;;
58302;SDS011;44109;52.398;7.024;2022-12-29T01:18:57;2.35;;;1.70;;
58302;SDS011;44109;52.398;7.024;2022-12-29T01:21:25;2.10;;;1.80;;
58302;SDS011;44109;52.398;7.024;2022-12-29T01:23:55;2.42;;;1.63;;
58302;SDS011;44109;52.398;7.024;2022-12-29T01:26:23;2.03;;;1.25;;
58302;SDS011;44109;52.398;7.024;2022-12-29T01:28:50;3.08;;;1.30;;
58302;SDS011;44109;52.398;7.024;2022-12-29T01:31:18;2.25;;;1.50;;
58302;SDS011;44109;52.398;7.024;2022-12-29T01:33:48;1.60;;;1.25;;
58302;SDS011;44109;52.398;7.024;2022-12-29T01:36:17;2.60;;;1.35;;
58302;SDS011;44109;52.398;7.024;2022-12-29T01:38:45;3.13;;;1.38;;
58302;SDS011;44109;52.398;7.024;2022-12-29T01:41:16;2.40;;;1.10;;
58302;SDS011;44109;52.398;7.024;2022-12-29T01:43:44;2.25;;;1.10;;
58302;SDS011;44109;52.398;7.024;2022-12-29T01:46:17;2.15;;;1.23;;
58302;SDS011;44109;52.398;7.024;2022-12-29T01:48:55;1.48;;;1.00;;
58302;SDS011;44109;52.398;7.024;2022-12-29T01:51:29;1.67;;;1.02;;
58302;SDS011;44109;52.398;7.024;2022-12-29T01:54:02;1.30;;;0.70;;
58302;SDS011;44109;52.398;7.024;2022-12-29T01:56:42;2.10;;;1.20;;
58302;SDS011;44109;52.398;7.024;2022-12-29T01:59:12;1.20;;;0.88;;
58302;SDS011;44109;52.398;7.024;2022-12-29T02:01:48;1.95;;;0.90;;
58302;SDS011;44109;52.398;7.024;2022-12-29T02:04:17;1.30;;;0.88;;
58302;SDS011;44109;52.398;7.024;2022-12-29T02:06:46;2.95;;;0.77;;
58302;SDS011;44109;52.398;7.024;2022-12-29T02:09:20;2.17;;;0.73;;
58302;SDS011;44109;52.398;7.024;2022-12-29T02:11:50;1.73;;;0.80;;
58302;SDS011;44109;52.398;7.024;2022-12-29T02:14:19;1.88;;;0.68;;
58302;SDS011;44109;52.398;7.024;2022-12-29T02:16:51;2.97;;;0.85;;
58302;SDS011;44109;52.398;7.024;2022-12-29T02:19:44;1.80;;;0.68;;
58302;SDS011;44109;52.398;7.024;2022-12-29T02:22:49;2.87;;;0.93;;
58302;SDS011;44109;52.398;7.024;2022-12-29T02:25:52;0.80;;;0.50;;
58302;SDS011;44109;52.398;7.024;2022-12-29T02:29:08;1.52;;;0.70;;
58302;SDS011;44109;52.398;7.024;2022-12-29T02:32:09;1.67;;;0.60;;
58302;SDS011;44109;52.398;7.024;2022-12-29T02:34:52;0.90;;;0.60;;
58302;SDS011;44109;52.398;7.024;2022-12-29T02:37:41;1.40;;;0.90;;
58302;SDS011;44109;52.398;7.024;2022-12-29T02:40:20;2.40;;;1.20;;
58302;SDS011;44109;52.398;7.024;2022-12-29T02:42:57;2.95;;;1.42;;
58302;SDS011;44109;52.398;7.024;2022-12-29T02:45:36;1.23;;;0.70;;
58302;SDS011;44109;52.398;7.024;2022-12-29T02:48:20;0.98;;;0.65;;
58302;SDS011;44109;52.398;7.024;2022-12-29T02:50:57;2.55;;;1.55;;
58302;SDS011;44109;52.398;7.024;2022-12-29T02:53:31;2.42;;;1.38;;
58302;SDS011;44109;52.398;7.024;2022-12-29T02:56:20;1.60;;;1.05;;
58302;SDS011;44109;52.398;7.024;2022-12-29T02:58:48;1.70;;;1.30;;
58302;SDS011;44109;52.398;7.024;2022-12-29T03:01:22;5.07;;;1.98;;
58302;SDS011;44109;52.398;7.024;2022-12-29T03:04:07;2.05;;;1.30;;
58302;SDS011;44109;52.398;7.024;2022-12-29T03:06:56;2.17;;;1.77;;
58302;SDS011;44109;52.398;7.024;2022-12-29T03:09:41;5.47;;;1.80;;
58302;SDS011;44109;52.398;7.024;2022-12-29T03:12:22;2.28;;;1.35;;
58302;SDS011;44109;52.398;7.024;2022-12-29T03:15:16;1.98;;;1.00;;
58302;SDS011;44109;52.398;7.024;2022-12-29T03:18:10;3.00;;;1.00;;
58302;SDS011;44109;52.398;7.024;2022-12-29T03:20:48;3.45;;;1.58;;
58302;SDS011;44109;52.398;7.024;2022-12-29T03:23:22;3.40;;;1.60;;
58302;SDS011;44109;52.398;7.024;2022-12-29T03:25:54;2.10;;;1.30;;
58302;SDS011;44109;52.398;7.024;2022-12-29T03:28:29;2.03;;;1.10;;
58302;SDS011;44109;52.398;7.024;2022-12-29T03:31:04;4.32;;;1.30;;
58302;SDS011;44109;52.398;7.024;2022-12-29T03:33:36;4.57;;;1.67;;
58302;SDS011;44109;52.398;7.024;2022-12-29T03:36:11;1.88;;;1.30;;
58302;SDS011;44109;52.398;7.024;2022-12-29T03:38:55;1.92;;;1.42;;
58302;SDS011;44109;52.398;7.024;2022-12-29T03:41:31;1.70;;;1.13;;
58302;SDS011;44109;52.398;7.024;2022-12-29T03:44:01;1.27;;;1.10;;
58302;SDS011;44109;52.398;7.024;2022-12-29T03:46:29;2.38;;;1.10;;
58302;SDS011;44109;52.398;7.024;2022-12-29T03:48:56;1.80;;;0.82;;
58302;SDS011;44109;52.398;7.024;2022-12-29T03:51:25;1.25;;;0.82;;
58302;SDS011;44109;52.398;7.024;2022-12-29T03:53:53;3.67;;;1.00;;
58302;SDS011;44109;52.398;7.024;2022-12-29T03:56:20;2.75;;;1.15;;
58302;SDS011;44109;52.398;7.024;2022-12-29T03:58:48;3.05;;;0.95;;
58302;SDS011;44109;52.398;7.024;2022-12-29T04:01:17;1.52;;;0.98;;
58302;SDS011;44109;52.398;7.024;2022-12-29T04:03:45;2.10;;;0.90;;
58302;SDS011;44109;52.398;7.024;2022-12-29T04:06:13;4.03;;;0.93;;
58302;SDS011;44109;52.398;7.024;2022-12-29T04:08:42;3.72;;;1.05;;
58302;SDS011;44109;52.398;7.024;2022-12-29T04:11:09;1.15;;;0.60;;
58302;SDS011;44109;52.398;7.024;2022-12-29T04:13:37;2.58;;;1.33;;
58302;SDS011;44109;52.398;7.024;2022-12-29T04:16:06;4.05;;;1.30;;
58302;SDS011;44109;52.398;7.024;2022-12-29T04:18:35;1.90;;;1.35;;
58302;SDS011;44109;52.398;7.024;2022-12-29T04:21:02;2.65;;;1.30;;
58302;SDS011;44109;52.398;7.024;2022-12-29T04:23:31;3.80;;;1.30;;
58302;SDS011;44109;52.398;7.024;2022-12-29T04:26:03;3.42;;;1.20;;
58302;SDS011;44109;52.398;7.024;2022-12-29T04:28:33;1.80;;;0.85;;
58302;SDS011;44109;52.398;7.024;2022-12-29T04:31:00;2.58;;;1.10;;
58302;SDS011;44109;52.398;7.024;2022-12-29T04:33:29;3.85;;;1.35;;
58302;SDS011;44109;52.398;7.024;2022-12-29T04:35:57;4.90;;;1.48;;
58302;SDS011;44109;52.398;7.024;2022-12-29T04:38:24;1.73;;;0.80;;
58302;SDS011;44109;52.398;7.024;2022-12-29T04:40:52;2.08;;;0.80;;
58302;SDS011;44109;52.398;7.024;2022-12-29T04:43:21;2.85;;;1.35;;
58302;SDS011;44109;52.398;7.024;2022-12-29T04:45:49;2.38;;;1.00;;
58302;SDS011;44109;52.398;7.024;2022-12-29T04:48:16;3.42;;;1.25;;
58302;SDS011;44109;52.398;7.024;2022-12-29T04:50:46;2.65;;;1.00;;
58302;SDS011;44109;52.398;7.024;2022-12-29T04:53:15;3.15;;;1.08;;
58302;SDS011;44109;52.398;7.024;2022-12-29T04:55:47;1.40;;;0.70;;
58302;SDS011;44109;52.398;7.024;2022-12-29T04:58:16;4.32;;;1.10;;
58302;SDS011;44109;52.398;7.024;2022-12-29T05:00:46;1.80;;;0.90;;
58302;SDS011;44109;52.398;7.024;2022-12-29T05:03:13;2.33;;;0.75;;
58302;SDS011;44109;52.398;7.024;2022-12-29T05:05:41;3.10;;;1.20;;
58302;SDS011;44109;52.398;7.024;2022-12-29T05:08:09;2.83;;;1.10;;
58302;SDS011;44109;52.398;7.024;2022-12-29T05:10:36;2.13;;;1.00;;
58302;SDS011;44109;52.398;7.024;2022-12-29T05:13:04;3.92;;;1.10;;
58302;SDS011;44109;52.398;7.024;2022-12-29T05:15:32;1.73;;;0.70;;
58302;SDS011;44109;52.398;7.024;2022-12-29T05:18:00;2.78;;;1.30;;
58302;SDS011;44109;52.398;7.024;2022-12-29T05:20:28;1.92;;;0.80;;
58302;SDS011;44109;52.398;7.024;2022-12-29T05:22:56;2.28;;;1.17;;
58302;SDS011;44109;52.398;7.024;2022-12-29T05:25:25;2.80;;;1.05;;
58302;SDS011;44109;52.398;7.024;2022-12-29T05:27:52;3.60;;;0.90;;
58302;SDS011;44109;52.398;7.024;2022-12-29T05:30:20;3.33;;;1.08;;
58302;SDS011;44109;52.398;7.024;2022-12-29T05:32:48;2.17;;;0.93;;
58302;SDS011;44109;52.398;7.024;2022-12-29T05:35:17;4.35;;;1.20;;
58302;SDS011;44109;52.398;7.024;2022-12-29T05:37:45;2.92;;;1.10;;
58302;SDS011;44109;52.398;7.024;2022-12-29T05:40:13;2.20;;;1.05;;
58302;SDS011;44109;52.398;7.024;2022-12-29T05:42:40;2.53;;;0.90;;
58302;SDS011;44109;52.398;7.024;2022-12-29T05:45:08;2.50;;;1.27;;
58302;SDS011;44109;52.398;7.024;2022-12-29T05:47:36;2.67;;;1.00;;
58302;SDS011;44109;52.398;7.024;2022-12-29T05:50:04;6.32;;;1.52;;
58302;SDS011;44109;52.398;7.024;2022-12-29T05:52:34;2.08;;;1.00;;
58302;SDS011;44109;52.398;7.024;2022-12-29T05:55:01;3.92;;;1.33;;
58302;SDS011;44109;52.398;7.024;2022-12-29T05:57:29;2.50;;;1.15;;
58302;SDS011;44109;52.398;7.024;2022-12-29T05:59:57;1.75;;;0.90;;
58302;SDS011;44109;52.398;7.024;2022-12-29T06:02:24;2.63;;;0.90;;
58302;SDS011;44109;52.398;7.024;2022-12-29T06:04:52;2.47;;;0.98;;
58302;SDS011;44109;52.398;7.024;2022-12-29T06:07:20;5.80;;;1.15;;
58302;SDS011;44109;52.398;7.024;2022-12-29T06:09:49;2.80;;;1.20;;
58302;SDS011;44109;52.398;7.024;2022-12-29T06:12:16;4.18;;;1.20;;
58302;SDS011;44109;52.398;7.024;2022-12-29T06:14:44;5.40;;;1.05;;
58302;SDS011;44109;52.398;7.024;2022-12-29T06:17:12;3.60;;;1.02;;
58302;SDS011;44109;52.398;7.024;2022-12-29T06:19:39;4.13;;;1.15;;
58302;SDS011;44109;52.398;7.024;2022-12-29T06:22:07;3.08;;;1.05;;
58302;SDS011;44109;52.398;7.024;2022-12-29T06:24:36;4.55;;;1.48;;
58302;SDS011;44109;52.398;7.024;2022-12-29T06:27:05;4.43;;;1.30;;
58302;SDS011;44109;52.398;7.024;2022-12-29T06:29:33;3.10;;;1.10;;
58302;SDS011;44109;52.398;7.024;2022-12-29T06:32:04;4.82;;;1.67;;
58302;SDS011;44109;52.398;7.024;2022-12-29T06:34:32;5.85;;;1.23;;
58302;SDS011;44109;52.398;7.024;2022-12-29T06:37:00;3.22;;;1.10;;
58302;SDS011;44109;52.398;7.024;2022-12-29T06:39:28;5.65;;;1.67;;
58302;SDS011;44109;52.398;7.024;2022-12-29T06:41:55;4.97;;;1.85;;
58302;SDS011;44109;52.398;7.024;2022-12-29T06:44:24;3.40;;;0.93;;
58302;SDS011;44109;52.398;7.024;2022-12-29T06:46:52;1.65;;;0.82;;
58302;SDS011;44109;52.398;7.024;2022-12-29T06:49:20;3.95;;;1.58;;
58302;SDS011;44109;52.398;7.024;2022-12-29T06:51:48;4.85;;;1.40;;
58302;SDS011;44109;52.398;7.024;2022-12-29T06:54:15;6.00;;;2.10;;
58302;SDS011;44109;52.398;7.024;2022-12-29T06:56:43;4.72;;;1.00;;
58302;SDS011;44109;52.398;7.024;2022-12-29T06:59:11;3.70;;;0.90;;
58302;SDS011;44109;52.398;7.024;2022-12-29T07:01:40;2.38;;;0.70;;
58302;SDS011;44109;52.398;7.024;2022-12-29T07:04:07;2.90;;;0.90;;
58302;SDS011;44109;52.398;7.024;2022-12-29T07:06:35;3.00;;;1.75;;
58302;SDS011;44109;52.398;7.024;2022-12-29T07:09:03;2.00;;;1.05;;
58302;SDS011;44109;52.398;7.024;2022-12-29T07:11:31;3.08;;;1.23;;
58302;SDS011;44109;52.398;7.024;2022-12-29T07:13:59;6.60;;;1.80;;
58302;SDS011;44109;52.398;7.024;2022-12-29T07:16:27;5.25;;;1.83;;
58302;SDS011;44109;52.398;7.024;2022-12-29T07:18:56;5.03;;;1.45;;
58302;SDS011;44109;52.398;7.024;2022-12-29T07:21:25;7.57;;;1.20;;
58302;SDS011;44109;52.398;7.024;2022-12-29T07:23:53;4.80;;;2.15;;
58302;SDS011;44109;52.398;7.024;2022-12-29T07:26:20;3.63;;;0.80;;
58302;SDS011;44109;52.398;7.024;2022-12-29T07:28:49;4.93;;;2.03;;
58302;SDS011;44109;52.398;7.024;2022-12-29T07:31:17;8.30;;;1.98;;
58302;SDS011;44109;52.398;7.024;2022-12-29T07:33:47;6.05;;;1.98;;
58302;SDS011;44109;52.398;7.024;2022-12-29T07:36:17;7.10;;;1.75;;
58302;SDS011;44109;52.398;7.024;2022-12-29T07:38:45;6.57;;;2.17;;
58302;SDS011;44109;52.398;7.024;2022-12-29T07:41:12;3.72;;;1.73;;
58302;SDS011;44109;52.398;7.024;2022-12-29T07:43:40;6.28;;;1.77;;
58302;SDS011;44109;52.398;7.024;2022-12-29T07:46:08;6.60;;;1.58;;
58302;SDS011;44109;52.398;7.024;2022-12-29T07:48:35;6.13;;;1.63;;
58302;SDS011;44109;52.398;7.024;2022-12-29T07:51:03;5.45;;;1.40;;
58302;SDS011;44109;52.398;7.024;2022-12-29T07:53:33;6.40;;;2.08;;
58302;SDS011;44109;52.398;7.024;2022-12-29T07:56:01;7.45;;;1.98;;
58302;SDS011;44109;52.398;7.024;2022-12-29T07:58:29;3.53;;;1.38;;
58302;SDS011;44109;52.398;7.024;2022-12-29T08:00:57;4.53;;;1.52;;
58302;SDS011;44109;52.398;7.024;2022-12-29T08:03:25;4.70;;;1.67;;
58302;SDS011;44109;52.398;7.024;2022-12-29T08:05:52;6.63;;;1.80;;
58302;SDS011;44109;52.398;7.024;2022-12-29T08:08:20;4.00;;;1.30;;
58302;SDS011;44109;52.398;7.024;2022-12-29T08:10:49;4.80;;;1.15;;
58302;SDS011;44109;52.398;7.024;2022-12-29T08:13:17;4.57;;;1.40;;
58302;SDS011;44109;52.398;7.024;2022-12-29T08:15:44;2.60;;;1.00;;
58302;SDS011;44109;52.398;7.024;2022-12-29T08:18:12;6.60;;;1.70;;
58302;SDS011;44109;52.398;7.024;2022-12-29T08:20:40;4.10;;;1.35;;
58302;SDS011;44109;52.398;7.024;2022-12-29T08:23:07;8.18;;;2.47;;
58302;SDS011;44109;52.398;7.024;2022-12-29T08:25:35;5.65;;;1.70;;
58302;SDS011;44109;52.398;7.024;2022-12-29T08:28:04;4.25;;;0.93;;
58302;SDS011;44109;52.398;7.024;2022-12-29T08:30:32;5.72;;;1.23;;
58302;SDS011;44109;52.398;7.024;2022-12-29T08:33:00;5.07;;;1.40;;
58302;SDS011;44109;52.398;7.024;2022-12-29T08:35:27;5.70;;;1.52;;
58302;SDS011;44109;52.398;7.024;2022-12-29T08:37:55;3.25;;;0.82;;
58302;SDS011;44109;52.398;7.024;2022-12-29T08:40:23;2.35;;;0.52;;
58302;SDS011;44109;52.398;7.024;2022-12-29T08:42:50;4.63;;;1.27;;
58302;SDS011;44109;52.398;7.024;2022-12-29T08:45:19;4.38;;;0.80;;
58302;SDS011;44109;52.398;7.024;2022-12-29T08:47:47;2.28;;;0.93;;
58302;SDS011;44109;52.398;7.024;2022-12-29T08:50:15;3.85;;;1.17;;
58302;SDS011;44109;52.398;7.024;2022-12-29T08:52:43;6.20;;;1.00;;
58302;SDS011;44109;52.398;7.024;2022-12-29T08:55:10;4.57;;;1.25;;
58302;SDS011;44109;52.398;7.024;2022-12-29T08:57:38;2.88;;;1.30;;
58302;SDS011;44109;52.398;7.024;2022-12-29T09:00:06;4.03;;;1.70;;
58302;SDS011;44109;52.398;7.024;2022-12-29T09:02:37;3.65;;;0.82;;
58302;SDS011;44109;52.398;7.024;2022-12-29T09:05:05;4.03;;;1.05;;
58302;SDS011;44109;52.398;7.024;2022-12-29T09:07:33;4.18;;;1.75;;
58302;SDS011;44109;52.398;7.024;2022-12-29T09:10:01;4.47;;;1.88;;
58302;SDS011;44109;52.398;7.024;2022-12-29T09:12:30;3.47;;;1.85;;
58302;SDS011;44109;52.398;7.024;2022-12-29T09:14:58;7.70;;;1.77;;
58302;SDS011;44109;52.398;7.024;2022-12-29T09:17:26;10.32;;;2.72;;
58302;SDS011;44109;52.398;7.024;2022-12-29T09:20:11;7.75;;;1.85;;
58302;SDS011;44109;52.398;7.024;2022-12-29T09:22:40;6.35;;;1.75;;
58302;SDS011;44109;52.398;7.024;2022-12-29T09:25:08;8.32;;;1.88;;
58302;SDS011;44109;52.398;7.024;2022-12-29T09:27:37;8.52;;;1.88;;
58302;SDS011;44109;52.398;7.024;2022-12-29T09:30:07;6.93;;;1.60;;
58302;SDS011;44109;52.398;7.024;2022-12-29T09:32:38;11.20;;;2.60;;
58302;SDS011;44109;52.398;7.024;2022-12-29T09:35:06;5.38;;;1.75;;
58302;SDS011;44109;52.398;7.024;2022-12-29T09:37:35;6.15;;;2.15;;
58302;SDS011;44109;52.398;7.024;2022-12-29T09:40:04;7.15;;;3.22;;
58302;SDS011;44109;52.398;7.024;2022-12-29T09:42:35;4.70;;;1.70;;
58302;SDS011;44109;52.398;7.024;2022-12-29T09:45:12;8.60;;;2.03;;
58302;SDS011;44109;52.398;7.024;2022-12-29T09:47:48;11.05;;;2.67;;
58302;SDS011;44109;52.398;7.024;2022-12-29T09:50:19;12.13;;;2.50;;
58302;SDS011;44109;52.398;7.024;2022-12-29T09:52:58;5.65;;;1.83;;
58302;SDS011;44109;52.398;7.024;2022-12-29T09:55:34;11.65;;;1.95;;
58302;SDS011;44109;52.398;7.024;2022-12-29T09:58:10;8.13;;;2.10;;
58302;SDS011;44109;52.398;7.024;2022-12-29T10:00:47;12.35;;;2.08;;
58302;SDS011;44109;52.398;7.024;2022-12-29T10:03:21;6.43;;;2.05;;
58302;SDS011;44109;52.398;7.024;2022-12-29T10:08:34;10.85;;;2.42;;
58302;SDS011;44109;52.398;7.024;2022-12-29T10:11:12;7.90;;;1.70;;
58302;SDS011;44109;52.398;7.024;2022-12-29T10:14:02;10.88;;;2.08;;
58302;SDS011;44109;52.398;7.024;2022-12-29T10:16:46;10.88;;;1.67;;
58302;SDS011;44109;52.398;7.024;2022-12-29T10:19:29;7.32;;;1.88;;
58302;SDS011;44109;52.398;7.024;2022-12-29T10:22:22;9.57;;;1.80;;
58302;SDS011;44109;52.398;7.024;2022-12-29T10:25:15;7.68;;;2.08;;
58302;SDS011;44109;52.398;7.024;2022-12-29T10:27:47;12.18;;;2.85;;
58302;SDS011;44109;52.398;7.024;2022-12-29T10:30:17;10.18;;;1.90;;
58302;SDS011;44109;52.398;7.024;2022-12-29T10:32:46;7.85;;;1.92;;
58302;SDS011;44109;52.398;7.024;2022-12-29T10:35:21;5.95;;;1.73;;
58302;SDS011;44109;52.398;7.024;2022-12-29T10:37:53;9.60;;;2.42;;
58302;SDS011;44109;52.398;7.024;2022-12-29T10:40:36;5.63;;;1.55;;
58302;SDS011;44109;52.398;7.024;2022-12-29T10:43:15;7.57;;;2.13;;
58302;SDS011;44109;52.398;7.024;2022-12-29T10:45:51;13.85;;;3.50;;
58302;SDS011;44109;52.398;7.024;2022-12-29T10:48:24;7.90;;;2.17;;
58302;SDS011;44109;52.398;7.024;2022-12-29T10:50:57;7.95;;;1.63;;
58302;SDS011;44109;52.398;7.024;2022-12-29T10:53:30;6.03;;;1.58;;
58302;SDS011;44109;52.398;7.024;2022-12-29T10:56:09;9.48;;;2.47;;
58302;SDS011;44109;52.398;7.024;2022-12-29T10:58:52;6.88;;;2.13;;
58302;SDS011;44109;52.398;7.024;2022-12-29T11:01:25;7.10;;;2.47;;
58302;SDS011;44109;52.398;7.024;2022-12-29T11:04:02;9.32;;;1.63;;
58302;SDS011;44109;52.398;7.024;2022-12-29T11:06:48;9.30;;;2.13;;
58302;SDS011;44109;52.398;7.024;2022-12-29T11:09:19;10.77;;;2.08;;
58302;SDS011;44109;52.398;7.024;2022-12-29T11:11:55;6.72;;;2.20;;
58302;SDS011;44109;52.398;7.024;2022-12-29T11:14:26;8.75;;;2.70;;
58302;SDS011;44109;52.398;7.024;2022-12-29T11:16:57;6.38;;;1.80;;
58302;SDS011;44109;52.398;7.024;2022-12-29T11:19:26;4.57;;;1.50;;
58302;SDS011;44109;52.398;7.024;2022-12-29T11:22:09;5.20;;;1.40;;
58302;SDS011;44109;52.398;7.024;2022-12-29T11:24:45;3.70;;;1.20;;
58302;SDS011;44109;52.398;7.024;2022-12-29T11:27:18;3.30;;;1.00;;
58302;SDS011;44109;52.398;7.024;2022-12-29T11:29:49;7.05;;;1.60;;
58302;SDS011;44109;52.398;7.024;2022-12-29T11:32:19;7.20;;;1.88;;
58302;SDS011;44109;52.398;7.024;2022-12-29T11:34:49;5.82;;;1.23;;
58302;SDS011;44109;52.398;7.024;2022-12-29T11:37:18;7.43;;;1.17;;
58302;SDS011;44109;52.398;7.024;2022-12-29T11:39:54;2.45;;;0.93;;
58302;SDS011;44109;52.398;7.024;2022-12-29T11:42:31;4.57;;;1.20;;
58302;SDS011;44109;52.398;7.024;2022-12-29T11:45:03;3.15;;;1.05;;
58302;SDS011;44109;52.398;7.024;2022-12-29T11:47:42;6.70;;;1.55;;
58302;SDS011;44109;52.398;7.024;2022-12-29T11:50:16;8.40;;;1.83;;
58302;SDS011;44109;52.398;7.024;2022-12-29T11:52:47;6.20;;;1.30;;
58302;SDS011;44109;52.398;7.024;2022-12-29T11:55:25;4.00;;;1.58;;
58302;SDS011;44109;52.398;7.024;2022-12-29T11:57:56;9.85;;;2.05;;
58302;SDS011;44109;52.398;7.024;2022-12-29T12:00:30;4.22;;;1.60;;
58302;SDS011;44109;52.398;7.024;2022-12-29T12:03:07;6.20;;;1.77;;
58302;SDS011;44109;52.398;7.024;2022-12-29T12:05:46;7.03;;;1.98;;
58302;SDS011;44109;52.398;7.024;2022-12-29T12:08:21;7.63;;;2.00;;
58302;SDS011;44109;52.398;7.024;2022-12-29T12:11:02;8.05;;;2.42;;
58302;SDS011;44109;52.398;7.024;2022-12-29T12:13:40;4.32;;;2.03;;
58302;SDS011;44109;52.398;7.024;2022-12-29T12:16:25;4.05;;;1.33;;
58302;SDS011;44109;52.398;7.024;2022-12-29T12:19:03;6.28;;;2.05;;
58302;SDS011;44109;52.398;7.024;2022-12-29T12:21:43;8.63;;;2.65;;
58302;SDS011;44109;52.398;7.024;2022-12-29T12:24:35;6.35;;;2.13;;
58302;SDS011;44109;52.398;7.024;2022-12-29T12:27:12;8.93;;;3.35;;
58302;SDS011;44109;52.398;7.024;2022-12-29T12:29:50;6.70;;;1.80;;
58302;SDS011;44109;52.398;7.024;2022-12-29T12:32:27;10.55;;;3.05;;
58302;SDS011;44109;52.398;7.024;2022-12-29T12:35:10;7.22;;;2.40;;
58302;SDS011;44109;52.398;7.024;2022-12-29T12:37:43;7.85;;;3.13;;
58302;SDS011;44109;52.398;7.024;2022-12-29T12:40:34;9.18;;;2.70;;
58302;SDS011;44109;52.398;7.024;2022-12-29T12:46:22;9.68;;;2.75;;
58302;SDS011;44109;52.398;7.024;2022-12-29T12:49:29;9.77;;;3.30;;
58302;SDS011;44109;52.398;7.024;2022-12-29T12:52:38;4.60;;;2.30;;
58302;SDS011;44109;52.398;7.024;2022-12-29T12:55:30;5.13;;;2.78;;
58302;SDS011;44109;52.398;7.024;2022-12-29T12:58:21;5.50;;;2.47;;
58302;SDS011;44109;52.398;7.024;2022-12-29T13:01:04;7.57;;;2.88;;
58302;SDS011;44109;52.398;7.024;2022-12-29T13:04:00;9.75;;;3.08;;
58302;SDS011;44109;52.398;7.024;2022-12-29T13:06:51;5.70;;;2.17;;
58302;SDS011;44109;52.398;7.024;2022-12-29T13:09:44;9.25;;;2.78;;
58302;SDS011;44109;52.398;7.024;2022-12-29T13:12:31;6.78;;;3.15;;
58302;SDS011;44109;52.398;7.024;2022-12-29T13:15:17;10.18;;;2.20;;
58302;SDS011;44109;52.398;7.024;2022-12-29T13:18:10;5.45;;;2.17;;
58302;SDS011;44109;52.398;7.024;2022-12-29T13:20:53;8.70;;;3.10;;
58302;SDS011;44109;52.398;7.024;2022-12-29T13:23:34;8.18;;;2.25;;
58302;SDS011;44109;52.398;7.024;2022-12-29T13:26:11;8.63;;;3.05;;
58302;SDS011;44109;52.398;7.024;2022-12-29T13:28:50;9.88;;;2.65;;
58302;SDS011;44109;52.398;7.024;2022-12-29T13:31:28;8.40;;;2.70;;
58302;SDS011;44109;52.398;7.024;2022-12-29T13:34:12;5.55;;;2.08;;
58302;SDS011;44109;52.398;7.024;2022-12-29T13:37:00;7.13;;;2.42;;
58302;SDS011;44109;52.398;7.024;2022-12-29T13:39:34;6.85;;;2.25;;
58302;SDS011;44109;52.398;7.024;2022-12-29T13:44:39;5.45;;;2.00;;
58302;SDS011;44109;52.398;7.024;2022-12-29T13:47:18;5.80;;;1.83;;
58302;SDS011;44109;52.398;7.024;2022-12-29T13:49:54;4.85;;;1.88;;
58302;SDS011;44109;52.398;7.024;2022-12-29T13:52:31;5.28;;;2.20;;
58302;SDS011;44109;52.398;7.024;2022-12-29T13:55:08;3.53;;;2.35;;
58302;SDS011;44109;52.398;7.024;2022-12-29T13:57:54;9.05;;;2.88;;
58302;SDS011;44109;52.398;7.024;2022-12-29T14:00:33;10.15;;;3.50;;
58302;SDS011;44109;52.398;7.024;2022-12-29T14:03:19;7.07;;;2.70;;
58302;SDS011;44109;52.398;7.024;2022-12-29T14:06:14;10.93;;;3.92;;
58302;SDS011;44109;52.398;7.024;2022-12-29T14:08:49;7.15;;;3.20;;
58302;SDS011;44109;52.398;7.024;2022-12-29T14:11:22;7.03;;;3.15;;
58302;SDS011;44109;52.398;7.024;2022-12-29T14:13:57;11.15;;;3.20;;
58302;SDS011;44109;52.398;7.024;2022-12-29T14:16:36;7.65;;;3.53;;
58302;SDS011;44109;52.398;7.024;2022-12-29T14:19:09;11.32;;;4.43;;
58302;SDS011;44109;52.398;7.024;2022-12-29T14:21:50;12.82;;;4.05;;
58302;SDS011;44109;52.398;7.024;2022-12-29T14:24:43;8.43;;;3.60;;
58302;SDS011;44109;52.398;7.024;2022-12-29T14:33:26;11.23;;;4.28;;
58302;SDS011;44109;52.398;7.024;2022-12-29T14:35:57;10.75;;;3.50;;
58302;SDS011;44109;52.398;7.024;2022-12-29T14:38:53;11.75;;;3.95;;
58302;SDS011;44109;52.398;7.024;2022-12-29T14:41:26;9.63;;;3.65;;
58302;SDS011;44109;52.398;7.024;2022-12-29T14:43:58;10.00;;;3.35;;
58302;SDS011;44109;52.398;7.024;2022-12-29T14:46:54;8.13;;;3.55;;
58302;SDS011;44109;52.398;7.024;2022-12-29T14:49:27;8.43;;;4.00;;
58302;SDS011;44109;52.398;7.024;2022-12-29T14:52:07;8.50;;;4.13;;
58302;SDS011;44109;52.398;7.024;2022-12-29T14:54:52;9.50;;;4.18;;
58302;SDS011;44109;52.398;7.024;2022-12-29T14:57:31;10.57;;;4.32;;
58302;SDS011;44109;52.398;7.024;2022-12-29T15:00:05;6.75;;;3.05;;
58302;SDS011;44109;52.398;7.024;2022-12-29T15:02:45;9.25;;;4.32;;
58302;SDS011;44109;52.398;7.024;2022-12-29T15:07:59;10.55;;;3.75;;
58302;SDS011;44109;52.398;7.024;2022-12-29T15:10:34;7.28;;;3.70;;
58302;SDS011;44109;52.398;7.024;2022-12-29T15:13:13;5.35;;;2.30;;
58302;SDS011;44109;52.398;7.024;2022-12-29T15:15:44;11.73;;;4.00;;
58302;SDS011;44109;52.398;7.024;2022-12-29T15:18:13;6.40;;;2.58;;
58302;SDS011;44109;52.398;7.024;2022-12-29T15:20:50;5.47;;;3.05;;
58302;SDS011;44109;52.398;7.024;2022-12-29T15:23:23;5.43;;;2.80;;
58302;SDS011;44109;52.398;7.024;2022-12-29T15:25:53;12.40;;;3.95;;
58302;SDS011;44109;52.398;7.024;2022-12-29T15:28:24;9.93;;;3.60;;
58302;SDS011;44109;52.398;7.024;2022-12-29T15:30:53;9.23;;;3.08;;
58302;SDS011;44109;52.398;7.024;2022-12-29T15:33:24;9.95;;;4.22;;
58302;SDS011;44109;52.398;7.024;2022-12-29T15:35:55;4.80;;;2.42;;
58302;SDS011;44109;52.398;7.024;2022-12-29T15:38:30;9.00;;;3.08;;
58302;SDS011;44109;52.398;7.024;2022-12-29T15:40:59;6.55;;;3.20;;
58302;SDS011;44109;52.398;7.024;2022-12-29T15:43:35;7.28;;;2.90;;